.
WxDataArchive / Data Records for 2010-12-20
2010-12-19 December 2010 2010-12-21

Data Records for Monday, 20 December 2010

Time	Temp	Chill	HIndex	Humid	Dewpt	 Wind 	HiWind	WindDir	Rain 	Barom 
-----	----	-----	------	-----	-----	------	------	-------	-----	----- 
00:00	9.7	9.7	9.7	82	5.3	0	0	---	0.00	30.165 
00:05	9.5	9.5	9.5	82	5.1	0	0	---	0.00	30.165 
00:10	9.3	9.3	9.3	82	4.9	0	0	---	0.00	30.165 
00:15	9.2	9.2	9.2	82	4.8	0	0	---	0.00	30.166 
00:20	9.2	9.2	9.2	83	5.1	0	0	---	0.00	30.166 
00:25	9.2	9.2	9.2	83	5.1	0	0	---	0.00	30.166 
00:30	9.0	9.0	9.0	83	4.9	0	0	---	0.00	30.166 
00:35	8.8	8.8	8.8	83	4.7	0	0	---	0.00	30.166 
00:40	8.6	8.6	8.6	83	4.5	0	0	---	0.00	30.166 
00:45	8.6	8.6	8.6	83	4.5	0	0	---	0.00	30.163 
00:50	8.4	8.4	8.4	83	4.3	0	0	---	0.00	30.163 
00:55	8.4	8.4	8.4	83	4.3	0	0	---	0.00	30.163 
01:00	8.3	8.3	8.3	83	4.2	0	0	---	0.00	30.165 
01:05	8.3	8.3	8.3	84	4.5	0	0	---	0.00	30.165 
01:10	8.3	8.3	8.3	84	4.5	0	0	---	0.00	30.165 
01:15	8.3	8.3	8.3	84	4.5	0	0	---	0.00	30.165 
01:20	8.1	8.1	8.1	84	4.3	0	0	---	0.00	30.165 
01:25	8.1	8.1	8.1	84	4.3	0	0	---	0.00	30.165 
01:30	7.9	7.9	7.9	84	4.1	0	0	---	0.00	30.173 
01:35	7.9	7.9	7.9	84	4.1	0	0	---	0.00	30.173 
01:40	8.1	8.1	8.1	84	4.3	0	0	---	0.00	30.173 
01:45	8.1	8.1	8.1	84	4.3	0	0	---	0.00	30.175 
01:50	7.9	7.9	7.9	84	4.1	0	0	---	0.00	30.175 
01:55	7.7	7.7	7.7	84	3.9	0	0	---	0.00	30.175 
02:00	7.7	7.7	7.7	84	3.9	0	0	---	0.00	30.176 
02:05	7.6	7.6	7.6	84	3.8	0	0	---	0.00	30.176 
02:10	7.7	7.7	7.7	84	3.9	0	0	---	0.00	30.176 
02:15	7.7	7.7	7.7	84	3.9	0	0	---	0.00	30.176 
02:20	7.6	7.6	7.6	84	3.8	0	0	---	0.00	30.176 
02:25	7.6	7.6	7.6	84	3.8	0	0	---	0.00	30.176 
02:30	7.6	7.6	7.6	84	3.8	0	0	---	0.00	30.180 
02:35	7.7	7.7	7.7	84	3.9	0	0	---	0.00	30.180 
02:40	7.9	7.9	7.9	84	4.1	0	0	---	0.00	30.180 
02:45	7.9	7.9	7.9	84	4.1	0	0	---	0.00	30.181 
02:50	7.9	7.9	7.9	84	4.1	0	0	---	0.00	30.181 
02:55	8.1	8.1	8.1	84	4.3	0	0	---	0.00	30.181 
03:00	8.1	8.1	8.1	84	4.3	0	0	---	0.00	30.184 
03:05	8.3	8.3	8.3	84	4.5	0	0	---	0.00	30.184 
03:10	8.3	8.3	8.3	84	4.5	0	0	---	0.00	30.184 
03:15	8.3	8.3	8.3	84	4.5	0	0	---	0.00	30.182 
03:20	8.3	8.3	8.3	84	4.5	0	0	---	0.00	30.182 
03:25	8.3	8.3	8.3	84	4.5	0	0	---	0.00	30.182 
03:30	8.4	8.4	8.4	85	4.8	0	0	---	0.00	30.188 
03:35	8.6	8.6	8.6	85	5.0	0	0	---	0.00	30.188 
03:40	8.8	8.8	8.8	85	5.2	0	0	---	0.00	30.188 
03:45	8.8	8.8	8.8	85	5.2	0	0	---	0.00	30.181 
03:50	8.6	8.6	8.6	84	4.8	0	0	---	0.00	30.181 
03:55	8.6	8.6	8.6	84	4.8	0	0	---	0.00	30.181 
04:00	8.4	8.4	8.4	85	4.8	0	0	---	0.00	30.191 
04:05	8.8	8.8	8.8	85	5.2	0	0	---	0.00	30.191 
04:10	8.8	8.8	8.8	85	5.2	0	0	---	0.00	30.191 
04:15	8.8	8.8	8.8	85	5.2	0	0	---	0.00	30.191 
04:20	8.8	8.8	8.8	85	5.2	0	0	---	0.00	30.191 
04:25	8.6	8.6	8.6	85	5.0	0	0	---	0.00	30.191 
04:30	8.6	8.6	8.6	84	4.8	0	0	---	0.00	30.190 
04:35	8.3	8.3	8.3	84	4.5	0	0	---	0.00	30.190 
04:40	8.1	8.1	8.1	84	4.3	0	0	---	0.00	30.190 
04:45	7.7	7.7	7.7	84	3.9	0	0	---	0.00	30.190 
04:50	7.6	7.6	7.6	84	3.8	0	0	---	0.00	30.190 
04:55	7.2	7.2	7.2	84	3.4	0	0	---	0.00	30.190 
05:00	7.0	7.0	7.0	84	3.2	0	0	---	0.00	30.185 
05:05	6.9	6.9	6.9	84	3.1	0	0	---	0.00	30.185 
05:10	6.7	6.7	6.7	84	2.9	0	0	---	0.00	30.185 
05:15	6.5	6.5	6.5	84	2.7	0	0	---	0.00	30.181 
05:20	6.5	6.5	6.5	84	2.7	0	0	---	0.00	30.181 
05:25	6.3	6.3	6.3	84	2.5	0	0	---	0.00	30.181 
05:30	6.3	6.3	6.3	84	2.5	0	0	---	0.00	30.180 
05:35	6.3	6.3	6.3	84	2.5	0	0	---	0.00	30.180 
05:40	6.3	6.3	6.3	84	2.5	0	0	---	0.00	30.180 
05:45	6.1	6.1	6.1	84	2.3	0	0	---	0.00	30.187 
05:50	6.1	6.1	6.1	84	2.3	0	0	---	0.00	30.187 
05:55	6.1	6.1	6.1	84	2.3	0	0	---	0.00	30.187 
06:00	6.1	6.1	6.1	84	2.3	0	0	---	0.00	30.198 
06:05	6.1	6.1	6.1	84	2.3	0	0	---	0.00	30.198 
06:10	6.0	6.0	6.0	84	2.2	0	0	---	0.00	30.198 
06:15	5.8	5.8	5.8	84	2.0	0	0	---	0.00	30.198 
06:20	5.6	5.6	5.6	83	1.6	0	0	---	0.00	30.198 
06:25	5.6	5.6	5.6	83	1.6	0	0	---	0.00	30.198 
06:30	5.4	5.4	5.4	84	1.6	0	0	---	0.00	30.199 
06:35	5.4	5.4	5.4	83	1.4	0	0	---	0.00	30.199 
06:40	5.4	5.4	5.4	83	1.4	0	0	---	0.00	30.199 
06:45	5.4	5.4	5.4	83	1.4	0	0	---	0.00	30.204 
06:50	5.4	5.4	5.4	83	1.4	0	0	---	0.00	30.204 
06:55	5.4	5.4	5.4	84	1.6	0	0	---	0.00	30.204 
07:00	5.4	5.4	5.4	84	1.6	0	0	---	0.00	30.211 
07:05	5.4	5.4	5.4	83	1.4	0	0	---	0.00	30.211 
07:10	5.2	5.2	5.2	83	1.2	0	0	---	0.00	30.211 
07:15	5.2	5.2	5.2	83	1.2	0	0	---	0.00	30.223 
07:20	5.2	5.2	5.2	83	1.2	0	0	---	0.00	30.223 
07:25	5.2	5.2	5.2	83	1.2	0	0	---	0.00	30.223 
07:30	5.4	5.4	5.4	84	1.6	0	0	---	0.00	30.237 
07:35	5.8	5.8	5.8	84	2.0	0	0	---	0.00	30.237 
07:40	6.0	6.0	6.0	84	2.2	0	0	---	0.00	30.237 
07:45	6.3	6.3	6.3	84	2.5	0	0	---	0.00	30.246 
07:50	6.7	6.7	6.7	84	2.9	0	0	---	0.00	30.246 
07:55	7.0	7.0	7.0	85	3.5	0	0	---	0.00	30.246 
08:00	7.6	7.6	7.6	85	4.1	0	0	---	0.00	30.248 
08:05	8.3	8.3	8.3	85	4.7	0	0	---	0.00	30.248 
08:10	8.6	8.6	8.6	85	5.0	0	0	---	0.00	30.248 
08:15	9.2	9.2	9.2	86	5.9	0	0	---	0.00	30.249 
08:20	9.7	9.7	9.7	86	6.4	0	0	---	0.00	30.249 
08:25	10.2	10.2	10.2	86	6.9	0	0	---	0.00	30.249 
08:30	10.5	10.5	10.5	86	7.2	0	0	---	0.00	30.247 
08:35	10.9	10.9	10.9	86	7.6	0	1	248	0.00	30.247 
08:40	11.2	11.2	11.2	86	7.8	0	0	---	0.00	30.247 
08:45	11.6	11.6	11.6	86	8.2	0	0	---	0.00	30.245 
08:50	11.9	11.9	11.9	86	8.5	0	0	---	0.00	30.245 
08:55	12.1	12.1	12.1	86	8.7	0	0	---	0.00	30.245 
09:00	12.4	12.4	12.4	86	9.0	0	0	---	0.00	30.245 
09:05	12.6	12.6	12.6	86	9.2	0	1	248	0.00	30.245 
09:10	12.9	12.9	12.9	86	9.5	0	0	---	0.00	30.245 
09:15	13.3	13.3	13.3	86	9.9	0	0	---	0.00	30.248 
09:20	13.6	13.6	13.6	86	10.2	0	1	248	0.00	30.248 
09:25	14.0	14.0	14.0	86	10.6	0	0	---	0.00	30.248 
09:30	14.3	14.3	14.3	86	10.9	0	1	248	0.00	30.248 
09:35	14.6	14.6	14.6	86	11.2	0	0	---	0.00	30.248 
09:40	14.9	14.9	14.9	86	11.5	0	1	248	0.00	30.248 
09:45	15.4	15.4	15.4	86	12.0	0	1	248	0.00	30.251 
09:50	15.7	15.7	15.7	85	12.0	0	1	248	0.00	30.251 
09:55	16.1	16.1	16.1	85	12.4	0	1	248	0.00	30.251 
10:00	16.4	16.4	16.4	85	12.7	0	1	248	0.00	30.251 
10:05	16.9	16.9	16.9	85	13.2	0	0	---	0.00	30.251 
10:10	17.7	17.7	17.7	86	14.2	0	0	---	0.00	30.251 
10:15	18.3	18.3	18.3	86	14.8	0	1	248	0.00	30.256 
10:20	18.9	18.9	18.9	86	15.4	0	0	---	0.00	30.256 
10:25	19.5	19.5	19.5	85	15.7	0	0	---	0.00	30.256 
10:30	20.0	20.0	20.0	85	16.2	0	0	---	0.00	30.254 
10:35	20.3	20.3	20.3	84	16.3	0	0	---	0.00	30.254 
10:40	21.0	21.0	21.0	84	16.9	0	0	---	0.00	30.254 
10:45	21.4	21.4	21.4	83	17.1	0	1	248	0.00	30.255 
10:50	21.8	21.8	21.8	82	17.2	0	0	---	0.00	30.255 
10:55	22.2	22.2	22.2	81	17.3	0	0	---	0.00	30.255 
11:00	22.7	22.7	22.7	80	17.5	0	0	---	0.00	30.257 
11:05	23.2	23.2	23.2	78	17.4	0	2	248	0.00	30.257 
11:10	23.5	23.5	23.5	77	17.4	0	2	248	0.00	30.257 
11:15	23.6	23.6	23.6	76	17.2	0	2	248	0.00	30.255 
11:20	23.9	23.9	23.9	75	17.2	0	1	248	0.00	30.255 
11:25	24.2	24.2	24.2	73	16.8	0	2	248	0.00	30.255 
11:30	24.5	24.5	24.5	73	17.1	0	2	248	0.00	30.251 
11:35	24.8	24.8	24.8	72	17.1	0	2	248	0.00	30.251 
11:40	24.8	24.8	24.8	71	16.8	0	2	248	0.00	30.251 
11:45	25.0	25.0	25.0	71	16.9	0	2	248	0.00	30.237 
11:50	25.3	25.3	25.3	69	16.6	0	2	248	0.00	30.237 
11:55	25.4	25.4	25.4	69	16.7	1	3	248	0.00	30.237 
12:00	25.6	25.6	25.6	70	17.2	0	1	248	0.00	30.240 
12:05	25.6	25.6	25.6	70	17.2	0	2	225	0.00	30.240 
12:10	25.4	25.4	25.4	70	17.0	0	2	225	0.00	30.240 
12:15	25.7	25.7	25.7	71	17.6	0	2	225	0.00	30.233 
12:20	25.8	25.8	25.8	70	17.4	0	2	225	0.00	30.233 
12:25	25.8	25.8	25.8	70	17.4	0	2	225	0.00	30.233 
12:30	26.0	26.0	26.0	70	17.6	0	1	225	0.00	30.232 
12:35	26.0	26.0	26.0	69	17.2	0	2	225	0.00	30.232 
12:40	26.1	26.1	26.1	69	17.3	0	2	225	0.00	30.232 
12:45	26.3	26.3	26.3	69	17.5	0	2	225	0.00	30.229 
12:50	26.3	26.3	26.3	69	17.5	0	1	225	0.00	30.229 
12:55	26.4	26.4	26.4	69	17.6	0	1	225	0.00	30.229 
13:00	26.6	26.6	26.6	70	18.2	0	1	225	0.00	30.229 
13:05	26.7	26.7	26.7	70	18.3	0	1	225	0.00	30.229 
13:10	26.7	26.7	26.7	70	18.3	0	1	225	0.00	30.229 
13:15	26.9	26.9	26.9	70	18.4	0	1	225	0.00	30.230 
13:20	27.2	27.2	27.2	69	18.4	0	2	202	0.00	30.230 
13:25	27.2	27.2	27.2	69	18.4	0	2	202	0.00	30.230 
13:30	27.2	27.2	27.2	69	18.4	0	2	202	0.00	30.228 
13:35	27.2	27.2	27.2	69	18.4	0	1	202	0.00	30.228 
13:40	27.3	27.3	27.3	69	18.5	0	2	202	0.00	30.228 
13:45	27.3	27.3	27.3	69	18.5	0	2	202	0.00	30.234 
13:50	27.3	27.3	27.3	69	18.5	0	2	202	0.00	30.234 
13:55	27.2	27.2	27.2	68	18.1	0	3	202	0.00	30.234 
14:00	27.2	27.2	27.2	69	18.4	0	2	68	0.00	30.226 
14:05	27.2	27.2	27.2	69	18.4	0	2	68	0.01	30.226 
14:10	27.0	27.0	27.0	69	18.2	1	3	68	0.00	30.226 
14:15	26.9	26.9	26.9	70	18.4	1	3	68	0.00	30.227 
14:20	26.7	26.7	26.7	70	18.3	1	3	68	0.00	30.227 
14:25	26.6	26.6	26.6	70	18.2	1	2	68	0.00	30.227 
14:30	26.1	26.1	26.1	71	18.0	2	4	68	0.00	30.226 
14:35	25.8	25.8	25.8	71	17.7	2	4	112	0.00	30.226 
14:40	25.8	25.8	25.8	72	18.0	1	3	112	0.00	30.226 
14:45	25.7	25.7	25.7	72	17.9	1	4	112	0.00	30.212 
14:50	25.7	25.7	25.7	72	17.9	1	5	112	0.00	30.212 
14:55	25.7	25.7	25.7	72	17.9	1	3	112	0.00	30.212 
15:00	25.6	25.6	25.6	72	17.8	1	4	112	0.00	30.209 
15:05	25.7	25.7	25.7	73	18.3	1	2	112	0.00	30.209 
15:10	25.7	25.7	25.7	73	18.3	1	3	112	0.00	30.209 
15:15	25.7	25.7	25.7	73	18.3	1	3	112	0.00	30.212 
15:20	25.7	25.7	25.7	73	18.3	1	3	135	0.00	30.212 
15:25	25.7	25.7	25.7	73	18.3	2	4	112	0.00	30.212 
15:30	25.6	25.6	25.6	73	18.2	2	6	112	0.00	30.213 
15:35	25.4	25.4	25.4	73	18.0	2	4	90	0.01	30.213 
15:40	25.3	25.3	25.3	73	17.9	3	5	112	0.00	30.213 
15:45	25.1	25.1	25.1	73	17.7	3	7	112	0.00	30.214 
15:50	25.0	25.0	25.0	74	17.9	2	4	90	0.00	30.214 
15:55	24.8	24.8	24.8	74	17.7	3	6	90	0.00	30.214 
16:00	24.7	24.7	24.7	74	17.6	3	6	90	0.00	30.216 
16:05	24.7	24.7	24.7	75	17.9	2	6	90	0.00	30.216 
16:10	24.5	24.5	24.5	75	17.7	3	7	112	0.00	30.216 
16:15	24.5	24.5	24.5	75	17.7	2	6	90	0.00	30.219 
16:20	24.5	24.5	24.5	75	17.7	2	4	112	0.00	30.219 
16:25	24.5	24.5	24.5	75	17.7	2	4	90	0.00	30.219 
16:30	24.5	24.5	24.5	75	17.7	2	5	68	0.00	30.226 
16:35	24.4	24.4	24.4	76	17.9	1	4	68	0.00	30.226 
16:40	24.5	24.5	24.5	76	18.0	1	5	90	0.00	30.226 
16:45	24.4	24.4	24.4	76	17.9	1	3	112	0.00	30.227 
16:50	24.4	24.4	24.4	76	17.9	1	3	112	0.00	30.227 
16:55	24.4	24.4	24.4	76	17.9	1	4	112	0.00	30.227 
17:00	24.4	24.4	24.4	76	17.9	1	3	135	0.00	30.226 
17:05	24.4	24.4	24.4	76	17.9	1	4	112	0.00	30.226 
17:10	24.2	24.2	24.2	76	17.7	2	4	112	0.00	30.226 
17:15	24.2	24.2	24.2	77	18.1	2	4	112	0.00	30.219 
17:20	24.1	24.1	24.1	77	18.0	1	3	135	0.00	30.219 
17:25	24.1	24.1	24.1	77	18.0	2	5	135	0.00	30.219 
17:30	23.9	23.9	23.9	77	17.8	2	4	90	0.00	30.219 
17:35	23.9	23.9	23.9	77	17.8	2	5	90	0.00	30.219 
17:40	23.8	23.8	23.8	77	17.7	2	6	90	0.00	30.219 
17:45	23.8	23.8	23.8	77	17.7	2	4	90	0.00	30.228 
17:50	23.6	23.6	23.6	77	17.5	2	4	112	0.00	30.228 
17:55	23.6	23.6	23.6	77	17.5	2	6	90	0.00	30.228 
18:00	23.6	23.6	23.6	77	17.5	1	3	112	0.00	30.229 
18:05	23.6	23.6	23.6	77	17.5	1	4	112	0.00	30.229 
18:10	23.6	23.6	23.6	77	17.5	1	5	90	0.00	30.229 
18:15	23.6	23.6	23.6	78	17.8	1	2	90	0.00	30.225 
18:20	23.6	23.6	23.6	78	17.8	0	2	180	0.00	30.225 
18:25	23.5	23.5	23.5	78	17.7	0	2	158	0.00	30.225 
18:30	23.5	23.5	23.5	78	17.7	1	2	135	0.00	30.229 
18:35	23.5	23.5	23.5	78	17.7	1	2	135	0.00	30.229 
18:40	23.5	23.5	23.5	78	17.7	1	3	90	0.00	30.229 
18:45	23.3	23.3	23.3	78	17.5	1	3	90	0.00	30.230 
18:50	23.3	23.3	23.3	78	17.5	1	3	90	0.00	30.230 
18:55	23.3	23.3	23.3	78	17.5	0	2	90	0.00	30.230 
19:00	23.2	23.2	23.2	78	17.4	0	2	90	0.00	30.239 
19:05	23.2	23.2	23.2	78	17.4	0	1	90	0.00	30.239 
19:10	23.2	23.2	23.2	79	17.7	1	3	90	0.00	30.239 
19:15	23.2	23.2	23.2	79	17.7	0	2	90	0.00	30.229 
19:20	23.0	23.0	23.0	79	17.5	0	2	90	0.00	30.229 
19:25	23.0	23.0	23.0	79	17.5	0	1	90	0.00	30.229 
19:30	23.0	23.0	23.0	79	17.5	0	0	---	0.00	30.235 
19:35	23.0	23.0	23.0	79	17.5	0	1	90	0.00	30.235 
19:40	23.0	23.0	23.0	79	17.5	0	1	90	0.00	30.235 
19:45	23.0	23.0	23.0	79	17.5	0	2	90	0.00	30.244 
19:50	23.0	23.0	23.0	79	17.5	0	1	90	0.00	30.244 
19:55	23.0	23.0	23.0	79	17.5	0	1	90	0.00	30.244 
20:00	23.0	23.0	23.0	80	17.8	0	0	---	0.00	30.240 
20:05	23.0	23.0	23.0	80	17.8	0	2	90	0.00	30.240 
20:10	23.0	23.0	23.0	80	17.8	0	2	90	0.00	30.240 
20:15	22.9	22.9	22.9	80	17.7	1	4	90	0.00	30.226 
20:20	22.9	22.9	22.9	80	17.7	1	4	90	0.00	30.226 
20:25	22.9	22.9	22.9	80	17.7	1	4	90	0.00	30.226 
20:30	22.9	22.9	22.9	80	17.7	1	2	90	0.00	30.226 
20:35	22.9	22.9	22.9	80	17.7	1	4	90	0.00	30.226 
20:40	22.9	22.9	22.9	80	17.7	1	3	90	0.00	30.226 
20:45	22.9	22.9	22.9	80	17.7	1	3	90	0.00	30.224 
20:50	22.9	22.9	22.9	80	17.7	1	4	90	0.00	30.224 
20:55	22.9	22.9	22.9	80	17.7	2	4	90	0.00	30.224 
21:00	22.9	22.9	22.9	80	17.7	2	4	112	0.00	30.194 
21:05	22.7	22.7	22.7	80	17.5	2	4	112	0.00	30.194 
21:10	22.7	22.7	22.7	80	17.5	3	6	112	0.00	30.194 
21:15	22.7	22.7	22.7	80	17.5	3	7	90	0.00	30.188 
21:20	22.7	22.7	22.7	80	17.5	3	6	90	0.00	30.188 
21:25	22.7	22.7	22.7	81	17.8	1	4	90	0.00	30.188 
21:30	22.7	22.7	22.7	81	17.8	3	6	90	0.00	30.200 
21:35	22.7	22.7	22.7	81	17.8	2	6	90	0.00	30.200 
21:40	22.7	22.7	22.7	81	17.8	1	5	90	0.00	30.200 
21:45	22.7	22.7	22.7	80	17.5	2	5	90	0.00	30.210 
21:50	22.7	22.7	22.7	80	17.5	2	4	90	0.00	30.210 
21:55	22.7	22.7	22.7	81	17.8	2	7	112	0.00	30.210 
22:00	22.7	22.7	22.7	80	17.5	2	5	90	0.00	30.212 
22:05	22.7	22.7	22.7	80	17.5	2	4	112	0.00	30.212 
22:10	22.7	22.7	22.7	80	17.5	3	7	112	0.00	30.212 
22:15	22.7	22.7	22.7	80	17.5	2	5	90	0.00	30.196 
22:20	22.7	22.7	22.7	80	17.5	2	5	90	0.00	30.196 
22:25	22.7	22.7	22.7	80	17.5	1	3	90	0.00	30.196 
22:30	22.7	22.7	22.7	80	17.5	1	3	90	0.00	30.208 
22:35	22.7	22.7	22.7	80	17.5	2	6	112	0.00	30.208 
22:40	22.7	22.7	22.7	80	17.5	1	3	112	0.00	30.208 
22:45	22.7	22.7	22.7	81	17.8	1	2	112	0.00	30.212 
22:50	22.7	22.7	22.7	81	17.8	1	4	68	0.00	30.212 
22:55	22.7	22.7	22.7	81	17.8	2	5	90	0.00	30.212 
23:00	22.7	22.7	22.7	81	17.8	2	5	112	0.00	30.211 
23:05	22.7	22.7	22.7	81	17.8	1	4	68	0.00	30.211 
23:10	22.7	22.7	22.7	81	17.8	1	3	90	0.00	30.211 
23:15	22.7	22.7	22.7	81	17.8	2	3	90	0.00	30.210 
23:20	22.7	22.7	22.7	81	17.8	1	3	90	0.00	30.210 
23:25	22.7	22.7	22.7	81	17.8	0	2	90	0.00	30.210 
23:30	22.7	22.7	22.7	81	17.8	0	4	112	0.00	30.213 
23:35	22.7	22.7	22.7	81	17.8	0	1	135	0.00	30.213 
23:40	22.7	22.7	22.7	81	17.8	1	2	135	0.00	30.213 
23:45	22.7	22.7	22.7	81	17.8	0	2	135	0.00	30.212 
23:50	22.7	22.7	22.7	81	17.8	1	2	135	0.00	30.212 
23:55	22.7	22.7	22.7	81	17.8	1	3	135	0.00	30.212 

CoCoRaHS
IN-AL-39
A2 Web Hosting
Creative Commons License
GoDaddy
search engine by freefind advanced

loaded 2018-11-12 15:16:28 • last modified 2010-11-18 10:43:29
Privacy PolicyDisclaimer
• wx.awcolley.com is powered by PmWiki v.2002016 •
• all content (unless otherwise noted) © 2018 A W Colley